sensor_id;sensor_type;location;lat;lon;timestamp;temperature;humidity
38456;DHT22;24237;50.106;20.014;2022-10-16T00:00:16;17.00;99.90
38456;DHT22;24237;50.106;20.014;2022-10-16T00:02:42;16.90;99.90
38456;DHT22;24237;50.106;20.014;2022-10-16T00:05:08;16.90;99.90
38456;DHT22;24237;50.106;20.014;2022-10-16T00:07:33;16.90;99.90
38456;DHT22;24237;50.106;20.014;2022-10-16T00:09:59;16.80;99.90
38456;DHT22;24237;50.106;20.014;2022-10-16T00:12:24;16.70;99.90
38456;DHT22;24237;50.106;20.014;2022-10-16T00:14:50;16.70;99.90
38456;DHT22;24237;50.106;20.014;2022-10-16T00:17:15;16.70;99.90
38456;DHT22;24237;50.106;20.014;2022-10-16T00:19:41;16.70;99.90
38456;DHT22;24237;50.106;20.014;2022-10-16T00:22:06;16.80;99.90
38456;DHT22;24237;50.106;20.014;2022-10-16T00:24:32;16.90;99.90
38456;DHT22;24237;50.106;20.014;2022-10-16T00:26:58;16.80;99.90
38456;DHT22;24237;50.106;20.014;2022-10-16T00:29:23;16.80;99.90
38456;DHT22;24237;50.106;20.014;2022-10-16T00:31:49;16.80;99.90
38456;DHT22;24237;50.106;20.014;2022-10-16T00:34:14;16.70;99.90
38456;DHT22;24237;50.106;20.014;2022-10-16T00:36:40;16.70;99.90
38456;DHT22;24237;50.106;20.014;2022-10-16T00:39:05;16.50;99.90
38456;DHT22;24237;50.106;20.014;2022-10-16T00:41:32;16.50;99.90
38456;DHT22;24237;50.106;20.014;2022-10-16T00:44:00;16.40;99.90
38456;DHT22;24237;50.106;20.014;2022-10-16T00:46:35;16.60;99.90
38456;DHT22;24237;50.106;20.014;2022-10-16T00:54:21;16.60;99.90
38456;DHT22;24237;50.106;20.014;2022-10-16T00:56:47;16.80;99.90
38456;DHT22;24237;50.106;20.014;2022-10-16T00:59:23;16.50;99.90
38456;DHT22;24237;50.106;20.014;2022-10-16T01:01:50;16.50;99.90
38456;DHT22;24237;50.106;20.014;2022-10-16T01:04:16;16.50;99.90
38456;DHT22;24237;50.106;20.014;2022-10-16T01:15:35;16.50;99.90
38456;DHT22;24237;50.106;20.014;2022-10-16T01:18:09;16.50;99.90
38456;DHT22;24237;50.106;20.014;2022-10-16T01:20:58;16.50;99.90
38456;DHT22;24237;50.106;20.014;2022-10-16T01:26:31;16.70;99.90
38456;DHT22;24237;50.106;20.014;2022-10-16T01:29:25;16.60;99.90
38456;DHT22;24237;50.106;20.014;2022-10-16T01:31:57;16.60;99.90
38456;DHT22;24237;50.106;20.014;2022-10-16T01:34:37;16.60;99.90
38456;DHT22;24237;50.106;20.014;2022-10-16T01:37:12;16.70;99.90
38456;DHT22;24237;50.106;20.014;2022-10-16T01:39:40;16.60;99.90
38456;DHT22;24237;50.106;20.014;2022-10-16T01:42:35;16.60;99.90
38456;DHT22;24237;50.106;20.014;2022-10-16T01:45:02;16.80;99.90
38456;DHT22;24237;50.106;20.014;2022-10-16T01:47:31;16.70;99.90
38456;DHT22;24237;50.106;20.014;2022-10-16T01:49:58;16.80;99.90
38456;DHT22;24237;50.106;20.014;2022-10-16T01:52:26;17.00;99.90
38456;DHT22;24237;50.106;20.014;2022-10-16T01:54:55;17.00;99.90
38456;DHT22;24237;50.106;20.014;2022-10-16T01:57:24;16.90;99.90
38456;DHT22;24237;50.106;20.014;2022-10-16T01:59:52;16.80;99.90
38456;DHT22;24237;50.106;20.014;2022-10-16T02:02:20;16.80;99.90
38456;DHT22;24237;50.106;20.014;2022-10-16T02:04:51;16.70;99.90
38456;DHT22;24237;50.106;20.014;2022-10-16T02:07:18;16.80;99.90
38456;DHT22;24237;50.106;20.014;2022-10-16T02:09:44;16.80;99.90
38456;DHT22;24237;50.106;20.014;2022-10-16T02:12:19;16.80;99.90
38456;DHT22;24237;50.106;20.014;2022-10-16T02:14:46;16.60;99.90
38456;DHT22;24237;50.106;20.014;2022-10-16T02:17:14;16.50;99.90
38456;DHT22;24237;50.106;20.014;2022-10-16T02:19:40;16.40;99.90
38456;DHT22;24237;50.106;20.014;2022-10-16T02:22:09;16.40;99.90
38456;DHT22;24237;50.106;20.014;2022-10-16T02:29:53;16.50;99.90
38456;DHT22;24237;50.106;20.014;2022-10-16T02:32:21;16.60;99.90
38456;DHT22;24237;50.106;20.014;2022-10-16T02:34:49;16.70;99.90
38456;DHT22;24237;50.106;20.014;2022-10-16T02:37:16;16.90;99.90
38456;DHT22;24237;50.106;20.014;2022-10-16T02:39:43;16.80;99.90
38456;DHT22;24237;50.106;20.014;2022-10-16T02:42:15;16.80;99.90
38456;DHT22;24237;50.106;20.014;2022-10-16T02:44:42;16.80;99.90
38456;DHT22;24237;50.106;20.014;2022-10-16T02:47:08;16.90;99.90
38456;DHT22;24237;50.106;20.014;2022-10-16T02:49:33;17.00;99.90
38456;DHT22;24237;50.106;20.014;2022-10-16T02:51:59;17.00;99.90
38456;DHT22;24237;50.106;20.014;2022-10-16T02:54:25;17.00;99.90
38456;DHT22;24237;50.106;20.014;2022-10-16T02:56:50;16.90;99.90
38456;DHT22;24237;50.106;20.014;2022-10-16T02:59:16;17.00;99.90
38456;DHT22;24237;50.106;20.014;2022-10-16T03:01:42;17.10;99.90
38456;DHT22;24237;50.106;20.014;2022-10-16T03:04:07;17.10;99.90
38456;DHT22;24237;50.106;20.014;2022-10-16T03:06:33;17.00;99.90
38456;DHT22;24237;50.106;20.014;2022-10-16T03:08:59;16.70;99.90
38456;DHT22;24237;50.106;20.014;2022-10-16T03:11:24;17.00;99.90
38456;DHT22;24237;50.106;20.014;2022-10-16T03:13:50;16.80;99.90
38456;DHT22;24237;50.106;20.014;2022-10-16T03:16:15;16.80;99.90
38456;DHT22;24237;50.106;20.014;2022-10-16T03:18:41;16.70;99.90
38456;DHT22;24237;50.106;20.014;2022-10-16T03:21:07;16.70;99.90
38456;DHT22;24237;50.106;20.014;2022-10-16T03:23:32;16.60;99.90
38456;DHT22;24237;50.106;20.014;2022-10-16T03:25:58;16.70;99.90
38456;DHT22;24237;50.106;20.014;2022-10-16T03:28:24;16.50;99.90
38456;DHT22;24237;50.106;20.014;2022-10-16T03:30:50;16.50;99.90
38456;DHT22;24237;50.106;20.014;2022-10-16T03:33:15;16.50;99.90
38456;DHT22;24237;50.106;20.014;2022-10-16T03:35:41;16.40;99.90
38456;DHT22;24237;50.106;20.014;2022-10-16T03:38:07;16.30;99.90
38456;DHT22;24237;50.106;20.014;2022-10-16T03:40:32;16.40;99.90
38456;DHT22;24237;50.106;20.014;2022-10-16T03:42:58;16.50;99.90
38456;DHT22;24237;50.106;20.014;2022-10-16T03:45:24;16.30;99.90
38456;DHT22;24237;50.106;20.014;2022-10-16T03:47:50;16.30;99.90
38456;DHT22;24237;50.106;20.014;2022-10-16T03:50:16;16.10;99.90
38456;DHT22;24237;50.106;20.014;2022-10-16T03:52:41;15.90;99.90
38456;DHT22;24237;50.106;20.014;2022-10-16T03:55:07;15.90;99.90
38456;DHT22;24237;50.106;20.014;2022-10-16T03:57:33;15.80;99.90
38456;DHT22;24237;50.106;20.014;2022-10-16T03:59:58;15.80;99.90
38456;DHT22;24237;50.106;20.014;2022-10-16T04:02:24;15.80;99.90
38456;DHT22;24237;50.106;20.014;2022-10-16T04:04:50;16.00;99.90
38456;DHT22;24237;50.106;20.014;2022-10-16T04:07:15;16.10;99.90
38456;DHT22;24237;50.106;20.014;2022-10-16T04:09:41;16.00;99.90
38456;DHT22;24237;50.106;20.014;2022-10-16T04:12:07;16.30;99.90
38456;DHT22;24237;50.106;20.014;2022-10-16T04:14:33;16.30;99.90
38456;DHT22;24237;50.106;20.014;2022-10-16T04:16:59;16.40;99.90
38456;DHT22;24237;50.106;20.014;2022-10-16T04:19:25;16.20;99.90
38456;DHT22;24237;50.106;20.014;2022-10-16T04:21:51;16.30;99.90
38456;DHT22;24237;50.106;20.014;2022-10-16T04:24:16;16.20;99.90
38456;DHT22;24237;50.106;20.014;2022-10-16T04:26:42;16.20;99.90
38456;DHT22;24237;50.106;20.014;2022-10-16T04:29:08;16.10;99.90
38456;DHT22;24237;50.106;20.014;2022-10-16T04:31:33;16.00;99.90
38456;DHT22;24237;50.106;20.014;2022-10-16T04:33:59;16.00;99.90
38456;DHT22;24237;50.106;20.014;2022-10-16T04:36:25;16.00;99.90
38456;DHT22;24237;50.106;20.014;2022-10-16T04:38:50;16.00;99.90
38456;DHT22;24237;50.106;20.014;2022-10-16T04:41:16;16.00;99.90
38456;DHT22;24237;50.106;20.014;2022-10-16T04:43:42;16.10;99.90
38456;DHT22;24237;50.106;20.014;2022-10-16T04:46:07;15.90;99.90
38456;DHT22;24237;50.106;20.014;2022-10-16T04:48:33;15.80;99.90
38456;DHT22;24237;50.106;20.014;2022-10-16T04:50:59;15.70;99.90
38456;DHT22;24237;50.106;20.014;2022-10-16T04:53:24;15.50;99.90
38456;DHT22;24237;50.106;20.014;2022-10-16T04:55:50;15.60;99.90
38456;DHT22;24237;50.106;20.014;2022-10-16T04:58:16;15.40;99.90
38456;DHT22;24237;50.106;20.014;2022-10-16T05:00:42;15.30;99.90
38456;DHT22;24237;50.106;20.014;2022-10-16T05:03:07;15.20;99.90
38456;DHT22;24237;50.106;20.014;2022-10-16T05:05:35;15.10;99.90
38456;DHT22;24237;50.106;20.014;2022-10-16T05:08:01;15.00;99.90
38456;DHT22;24237;50.106;20.014;2022-10-16T05:10:26;15.00;99.90
38456;DHT22;24237;50.106;20.014;2022-10-16T05:12:52;14.90;99.90
38456;DHT22;24237;50.106;20.014;2022-10-16T05:15:18;14.90;99.90
38456;DHT22;24237;50.106;20.014;2022-10-16T05:17:44;14.90;99.90
38456;DHT22;24237;50.106;20.014;2022-10-16T05:20:09;15.00;99.90
38456;DHT22;24237;50.106;20.014;2022-10-16T05:22:35;15.00;99.90
38456;DHT22;24237;50.106;20.014;2022-10-16T05:25:01;15.10;99.90
38456;DHT22;24237;50.106;20.014;2022-10-16T05:27:26;15.00;99.90
38456;DHT22;24237;50.106;20.014;2022-10-16T05:29:52;15.10;99.90
38456;DHT22;24237;50.106;20.014;2022-10-16T05:32:18;15.00;99.90
38456;DHT22;24237;50.106;20.014;2022-10-16T05:34:45;15.00;99.90
38456;DHT22;24237;50.106;20.014;2022-10-16T05:37:11;15.10;99.90
38456;DHT22;24237;50.106;20.014;2022-10-16T05:39:37;15.10;99.90
38456;DHT22;24237;50.106;20.014;2022-10-16T05:42:04;15.10;99.90
38456;DHT22;24237;50.106;20.014;2022-10-16T05:44:30;15.20;99.90
38456;DHT22;24237;50.106;20.014;2022-10-16T05:46:55;15.40;99.90
38456;DHT22;24237;50.106;20.014;2022-10-16T05:49:21;15.40;99.90
38456;DHT22;24237;50.106;20.014;2022-10-16T05:51:47;15.50;99.90
38456;DHT22;24237;50.106;20.014;2022-10-16T05:54:12;15.60;99.90
38456;DHT22;24237;50.106;20.014;2022-10-16T05:56:38;15.60;99.90
38456;DHT22;24237;50.106;20.014;2022-10-16T05:59:04;15.80;99.90
38456;DHT22;24237;50.106;20.014;2022-10-16T06:01:30;15.90;99.90
38456;DHT22;24237;50.106;20.014;2022-10-16T06:03:56;16.10;99.90
38456;DHT22;24237;50.106;20.014;2022-10-16T06:06:26;16.10;99.90
38456;DHT22;24237;50.106;20.014;2022-10-16T06:08:53;16.20;99.90
38456;DHT22;24237;50.106;20.014;2022-10-16T06:11:25;16.20;99.90
38456;DHT22;24237;50.106;20.014;2022-10-16T06:13:55;16.20;99.90
38456;DHT22;24237;50.106;20.014;2022-10-16T06:16:22;16.30;99.90
38456;DHT22;24237;50.106;20.014;2022-10-16T06:18:50;16.40;99.90
38456;DHT22;24237;50.106;20.014;2022-10-16T06:21:18;16.40;99.90
38456;DHT22;24237;50.106;20.014;2022-10-16T06:23:44;16.40;99.90
38456;DHT22;24237;50.106;20.014;2022-10-16T06:26:15;16.20;99.90
38456;DHT22;24237;50.106;20.014;2022-10-16T06:28:41;16.00;99.90
38456;DHT22;24237;50.106;20.014;2022-10-16T06:31:09;16.00;99.90
38456;DHT22;24237;50.106;20.014;2022-10-16T06:33:36;16.20;99.90
38456;DHT22;24237;50.106;20.014;2022-10-16T06:36:04;16.20;99.90
38456;DHT22;24237;50.106;20.014;2022-10-16T06:38:31;16.30;99.90
38456;DHT22;24237;50.106;20.014;2022-10-16T06:40:57;16.40;99.90
38456;DHT22;24237;50.106;20.014;2022-10-16T06:43:23;16.60;99.90
38456;DHT22;24237;50.106;20.014;2022-10-16T06:46:01;17.00;99.90
38456;DHT22;24237;50.106;20.014;2022-10-16T06:48:28;17.10;99.90
38456;DHT22;24237;50.106;20.014;2022-10-16T06:51:00;17.30;99.90
38456;DHT22;24237;50.106;20.014;2022-10-16T06:53:29;17.30;99.90
38456;DHT22;24237;50.106;20.014;2022-10-16T06:55:55;17.50;99.90
38456;DHT22;24237;50.106;20.014;2022-10-16T06:58:21;17.60;99.90
38456;DHT22;24237;50.106;20.014;2022-10-16T07:00:47;17.80;99.90
38456;DHT22;24237;50.106;20.014;2022-10-16T07:03:13;18.20;99.90
38456;DHT22;24237;50.106;20.014;2022-10-16T07:05:39;18.30;99.90
38456;DHT22;24237;50.106;20.014;2022-10-16T07:08:05;18.40;99.90
38456;DHT22;24237;50.106;20.014;2022-10-16T07:10:34;18.30;99.90
38456;DHT22;24237;50.106;20.014;2022-10-16T07:13:00;18.70;99.90
38456;DHT22;24237;50.106;20.014;2022-10-16T07:15:26;18.60;99.90
38456;DHT22;24237;50.106;20.014;2022-10-16T07:17:52;18.70;99.90
38456;DHT22;24237;50.106;20.014;2022-10-16T07:20:18;18.70;99.90
38456;DHT22;24237;50.106;20.014;2022-10-16T07:22:44;18.90;99.90
38456;DHT22;24237;50.106;20.014;2022-10-16T07:25:10;19.20;99.90
38456;DHT22;24237;50.106;20.014;2022-10-16T07:27:37;19.30;99.90
38456;DHT22;24237;50.106;20.014;2022-10-16T07:30:17;19.60;99.90
38456;DHT22;24237;50.106;20.014;2022-10-16T07:32:43;19.70;99.90
38456;DHT22;24237;50.106;20.014;2022-10-16T07:35:08;19.70;99.90
38456;DHT22;24237;50.106;20.014;2022-10-16T07:37:34;20.00;99.90
38456;DHT22;24237;50.106;20.014;2022-10-16T07:39:59;20.10;99.90
38456;DHT22;24237;50.106;20.014;2022-10-16T07:42:26;20.20;99.90
38456;DHT22;24237;50.106;20.014;2022-10-16T07:44:52;20.40;99.90
38456;DHT22;24237;50.106;20.014;2022-10-16T07:47:17;20.50;99.90
38456;DHT22;24237;50.106;20.014;2022-10-16T07:49:43;20.70;99.90
38456;DHT22;24237;50.106;20.014;2022-10-16T07:52:09;20.80;99.90
38456;DHT22;24237;50.106;20.014;2022-10-16T07:54:34;20.70;99.90
38456;DHT22;24237;50.106;20.014;2022-10-16T07:57:00;21.00;99.90
38456;DHT22;24237;50.106;20.014;2022-10-16T07:59:25;20.90;99.90
38456;DHT22;24237;50.106;20.014;2022-10-16T08:01:51;21.00;99.90
38456;DHT22;24237;50.106;20.014;2022-10-16T08:04:16;21.10;99.90
38456;DHT22;24237;50.106;20.014;2022-10-16T08:06:42;21.10;99.90
38456;DHT22;24237;50.106;20.014;2022-10-16T08:09:08;21.10;99.90
38456;DHT22;24237;50.106;20.014;2022-10-16T08:11:34;21.10;99.90
38456;DHT22;24237;50.106;20.014;2022-10-16T08:14:00;21.00;99.90
38456;DHT22;24237;50.106;20.014;2022-10-16T08:16:26;21.30;99.90
38456;DHT22;24237;50.106;20.014;2022-10-16T08:18:51;21.00;99.90
38456;DHT22;24237;50.106;20.014;2022-10-16T08:21:20;21.00;99.90
38456;DHT22;24237;50.106;20.014;2022-10-16T08:23:46;20.90;99.90
38456;DHT22;24237;50.106;20.014;2022-10-16T08:26:12;20.90;99.90
38456;DHT22;24237;50.106;20.014;2022-10-16T08:28:38;20.90;99.90
38456;DHT22;24237;50.106;20.014;2022-10-16T08:31:11;21.00;99.90
38456;DHT22;24237;50.106;20.014;2022-10-16T08:33:37;21.40;99.90
38456;DHT22;24237;50.106;20.014;2022-10-16T08:36:05;21.40;99.90
38456;DHT22;24237;50.106;20.014;2022-10-16T08:38:30;21.60;99.90
38456;DHT22;24237;50.106;20.014;2022-10-16T08:49:26;22.10;99.90
38456;DHT22;24237;50.106;20.014;2022-10-16T08:51:52;22.30;99.90
38456;DHT22;24237;50.106;20.014;2022-10-16T08:54:37;22.50;99.90
38456;DHT22;24237;50.106;20.014;2022-10-16T08:57:13;22.80;99.90
38456;DHT22;24237;50.106;20.014;2022-10-16T08:59:40;22.70;99.90
38456;DHT22;24237;50.106;20.014;2022-10-16T09:02:27;22.80;99.90
38456;DHT22;24237;50.106;20.014;2022-10-16T09:05:31;23.00;99.90
38456;DHT22;24237;50.106;20.014;2022-10-16T09:08:11;23.30;99.90
38456;DHT22;24237;50.106;20.014;2022-10-16T09:13:23;23.50;99.20
38456;DHT22;24237;50.106;20.014;2022-10-16T09:16:14;23.70;98.90
38456;DHT22;24237;50.106;20.014;2022-10-16T09:22:16;23.50;99.30
38456;DHT22;24237;50.106;20.014;2022-10-16T09:24:42;23.60;99.40
38456;DHT22;24237;50.106;20.014;2022-10-16T09:27:14;23.70;99.00
38456;DHT22;24237;50.106;20.014;2022-10-16T09:29:40;23.60;99.10
38456;DHT22;24237;50.106;20.014;2022-10-16T09:32:17;23.80;99.10
38456;DHT22;24237;50.106;20.014;2022-10-16T09:34:55;23.90;99.40
38456;DHT22;24237;50.106;20.014;2022-10-16T09:37:22;24.30;98.40
38456;DHT22;24237;50.106;20.014;2022-10-16T09:39:53;24.60;98.60
38456;DHT22;24237;50.106;20.014;2022-10-16T09:42:38;24.40;98.50
38456;DHT22;24237;50.106;20.014;2022-10-16T09:45:04;24.50;98.50
38456;DHT22;24237;50.106;20.014;2022-10-16T09:47:31;24.50;98.10
38456;DHT22;24237;50.106;20.014;2022-10-16T09:50:24;24.70;97.90
38456;DHT22;24237;50.106;20.014;2022-10-16T09:52:50;24.50;97.50
38456;DHT22;24237;50.106;20.014;2022-10-16T09:55:17;24.40;97.60
38456;DHT22;24237;50.106;20.014;2022-10-16T09:57:53;24.40;98.00
38456;DHT22;24237;50.106;20.014;2022-10-16T10:00:20;24.60;98.10
38456;DHT22;24237;50.106;20.014;2022-10-16T10:02:46;24.50;98.10
38456;DHT22;24237;50.106;20.014;2022-10-16T10:05:27;24.40;98.20
38456;DHT22;24237;50.106;20.014;2022-10-16T10:07:58;24.20;98.00
38456;DHT22;24237;50.106;20.014;2022-10-16T10:10:29;24.30;97.80
38456;DHT22;24237;50.106;20.014;2022-10-16T10:12:55;24.50;97.50
38456;DHT22;24237;50.106;20.014;2022-10-16T10:15:23;24.40;97.70
38456;DHT22;24237;50.106;20.014;2022-10-16T10:17:53;24.40;97.80
38456;DHT22;24237;50.106;20.014;2022-10-16T10:20:35;24.70;97.80
38456;DHT22;24237;50.106;20.014;2022-10-16T10:23:24;24.70;97.50
38456;DHT22;24237;50.106;20.014;2022-10-16T10:34:46;25.30;96.80
38456;DHT22;24237;50.106;20.014;2022-10-16T10:46:00;25.50;96.30
38456;DHT22;24237;50.106;20.014;2022-10-16T10:56:42;25.70;96.40
38456;DHT22;24237;50.106;20.014;2022-10-16T11:02:36;26.30;96.30
38456;DHT22;24237;50.106;20.014;2022-10-16T11:07:52;26.10;95.80
38456;DHT22;24237;50.106;20.014;2022-10-16T11:10:27;26.20;96.00
38456;DHT22;24237;50.106;20.014;2022-10-16T11:15:42;26.50;95.50
38456;DHT22;24237;50.106;20.014;2022-10-16T11:18:40;26.60;95.50
38456;DHT22;24237;50.106;20.014;2022-10-16T11:24:42;26.30;94.40
38456;DHT22;24237;50.106;20.014;2022-10-16T11:27:17;26.00;94.60
38456;DHT22;24237;50.106;20.014;2022-10-16T11:30:16;26.00;94.60
38456;DHT22;24237;50.106;20.014;2022-10-16T11:33:14;25.60;94.80
38456;DHT22;24237;50.106;20.014;2022-10-16T11:39:29;25.50;95.10
38456;DHT22;24237;50.106;20.014;2022-10-16T11:42:21;25.30;95.00
38456;DHT22;24237;50.106;20.014;2022-10-16T11:45:26;25.20;95.40
38456;DHT22;24237;50.106;20.014;2022-10-16T11:57:38;25.00;95.30
38456;DHT22;24237;50.106;20.014;2022-10-16T12:08:15;24.70;95.50
38456;DHT22;24237;50.106;20.014;2022-10-16T12:10:46;24.80;95.60
38456;DHT22;24237;50.106;20.014;2022-10-16T12:13:36;24.70;95.80
38456;DHT22;24237;50.106;20.014;2022-10-16T12:16:22;24.60;95.90
38456;DHT22;24237;50.106;20.014;2022-10-16T12:19:18;24.60;96.00
38456;DHT22;24237;50.106;20.014;2022-10-16T12:25:33;24.70;96.10
38456;DHT22;24237;50.106;20.014;2022-10-16T12:31:17;24.90;95.80
38456;DHT22;24237;50.106;20.014;2022-10-16T12:33:59;25.10;95.80
38456;DHT22;24237;50.106;20.014;2022-10-16T12:36:39;25.50;95.50
38456;DHT22;24237;50.106;20.014;2022-10-16T12:39:05;25.70;95.20
38456;DHT22;24237;50.106;20.014;2022-10-16T12:41:35;25.70;95.20
38456;DHT22;24237;50.106;20.014;2022-10-16T12:44:05;25.60;95.10
38456;DHT22;24237;50.106;20.014;2022-10-16T12:49:29;25.70;95.10
38456;DHT22;24237;50.106;20.014;2022-10-16T13:16:53;24.10;96.10
38456;DHT22;24237;50.106;20.014;2022-10-16T13:29:34;25.30;95.10
38456;DHT22;24237;50.106;20.014;2022-10-16T13:32:08;24.80;95.70
38456;DHT22;24237;50.106;20.014;2022-10-16T13:34:48;24.60;96.10
38456;DHT22;24237;50.106;20.014;2022-10-16T13:37:22;24.20;96.30
38456;DHT22;24237;50.106;20.014;2022-10-16T13:39:49;24.10;96.40
38456;DHT22;24237;50.106;20.014;2022-10-16T13:42:25;24.00;96.70
38456;DHT22;24237;50.106;20.014;2022-10-16T13:44:59;23.90;96.70
38456;DHT22;24237;50.106;20.014;2022-10-16T13:47:33;23.90;96.60
38456;DHT22;24237;50.106;20.014;2022-10-16T13:57:34;24.30;96.50
38456;DHT22;24237;50.106;20.014;2022-10-16T14:00:03;24.30;96.60
38456;DHT22;24237;50.106;20.014;2022-10-16T14:02:55;24.20;96.80
38456;DHT22;24237;50.106;20.014;2022-10-16T14:05:28;24.10;97.00
38456;DHT22;24237;50.106;20.014;2022-10-16T14:07:55;24.00;97.30
38456;DHT22;24237;50.106;20.014;2022-10-16T14:10:27;23.80;97.50
38456;DHT22;24237;50.106;20.014;2022-10-16T14:13:04;23.70;97.60
38456;DHT22;24237;50.106;20.014;2022-10-16T14:15:55;23.60;97.70
38456;DHT22;24237;50.106;20.014;2022-10-16T14:18:50;23.70;97.70
38456;DHT22;24237;50.106;20.014;2022-10-16T14:25:02;23.60;97.90
38456;DHT22;24237;50.106;20.014;2022-10-16T14:27:43;23.70;97.90
38456;DHT22;24237;50.106;20.014;2022-10-16T14:30:20;23.80;97.90
38456;DHT22;24237;50.106;20.014;2022-10-16T14:33:34;23.70;97.90
38456;DHT22;24237;50.106;20.014;2022-10-16T14:36:26;23.60;98.00
38456;DHT22;24237;50.106;20.014;2022-10-16T14:39:04;24.10;97.70
38456;DHT22;24237;50.106;20.014;2022-10-16T14:41:35;24.70;97.20
38456;DHT22;24237;50.106;20.014;2022-10-16T14:44:06;25.10;96.80
38456;DHT22;24237;50.106;20.014;2022-10-16T14:46:44;25.50;96.60
38456;DHT22;24237;50.106;20.014;2022-10-16T14:51:40;26.30;95.80
38456;DHT22;24237;50.106;20.014;2022-10-16T14:54:13;26.50;95.50
38456;DHT22;24237;50.106;20.014;2022-10-16T14:56:48;26.40;95.40
38456;DHT22;24237;50.106;20.014;2022-10-16T14:59:19;26.00;95.70
38456;DHT22;24237;50.106;20.014;2022-10-16T15:01:45;25.80;95.80
38456;DHT22;24237;50.106;20.014;2022-10-16T15:04:12;25.50;96.10
38456;DHT22;24237;50.106;20.014;2022-10-16T15:06:38;25.10;96.40
38456;DHT22;24237;50.106;20.014;2022-10-16T15:09:04;24.90;96.50
38456;DHT22;24237;50.106;20.014;2022-10-16T15:11:31;25.00;96.30
38456;DHT22;24237;50.106;20.014;2022-10-16T15:13:57;24.90;96.40
38456;DHT22;24237;50.106;20.014;2022-10-16T15:16:23;24.90;96.60
38456;DHT22;24237;50.106;20.014;2022-10-16T15:18:49;24.90;96.60
38456;DHT22;24237;50.106;20.014;2022-10-16T15:21:30;24.70;96.60
38456;DHT22;24237;50.106;20.014;2022-10-16T15:23:56;24.40;96.90
38456;DHT22;24237;50.106;20.014;2022-10-16T15:26:27;24.20;97.10
38456;DHT22;24237;50.106;20.014;2022-10-16T15:28:53;23.80;97.40
38456;DHT22;24237;50.106;20.014;2022-10-16T15:31:19;23.70;97.60
38456;DHT22;24237;50.106;20.014;2022-10-16T15:33:49;23.40;97.90
38456;DHT22;24237;50.106;20.014;2022-10-16T15:36:25;23.20;98.20
38456;DHT22;24237;50.106;20.014;2022-10-16T15:38:51;22.90;98.70
38456;DHT22;24237;50.106;20.014;2022-10-16T15:41:16;22.70;98.90
38456;DHT22;24237;50.106;20.014;2022-10-16T15:43:42;22.50;99.30
38456;DHT22;24237;50.106;20.014;2022-10-16T15:46:11;22.30;99.30
38456;DHT22;24237;50.106;20.014;2022-10-16T15:48:37;22.50;99.30
38456;DHT22;24237;50.106;20.014;2022-10-16T15:51:07;22.30;99.50
38456;DHT22;24237;50.106;20.014;2022-10-16T15:53:33;22.20;99.80
38456;DHT22;24237;50.106;20.014;2022-10-16T15:56:06;21.80;99.90
38456;DHT22;24237;50.106;20.014;2022-10-16T15:58:32;21.70;99.90
38456;DHT22;24237;50.106;20.014;2022-10-16T16:00:59;21.50;99.90
38456;DHT22;24237;50.106;20.014;2022-10-16T16:03:36;21.40;99.90
38456;DHT22;24237;50.106;20.014;2022-10-16T16:06:10;21.40;99.90
38456;DHT22;24237;50.106;20.014;2022-10-16T16:08:36;21.30;99.90
38456;DHT22;24237;50.106;20.014;2022-10-16T16:11:08;21.20;99.90
38456;DHT22;24237;50.106;20.014;2022-10-16T16:13:34;21.10;99.90
38456;DHT22;24237;50.106;20.014;2022-10-16T16:16:08;21.00;99.90
38456;DHT22;24237;50.106;20.014;2022-10-16T16:18:34;20.90;99.90
38456;DHT22;24237;50.106;20.014;2022-10-16T16:21:00;20.70;99.90
38456;DHT22;24237;50.106;20.014;2022-10-16T16:23:26;20.60;99.90
38456;DHT22;24237;50.106;20.014;2022-10-16T16:28:46;20.40;99.90
38456;DHT22;24237;50.106;20.014;2022-10-16T16:31:11;20.40;99.90
38456;DHT22;24237;50.106;20.014;2022-10-16T16:33:40;20.30;99.90
38456;DHT22;24237;50.106;20.014;2022-10-16T16:36:06;20.30;99.90
38456;DHT22;24237;50.106;20.014;2022-10-16T16:38:33;20.30;99.90
38456;DHT22;24237;50.106;20.014;2022-10-16T16:40:59;20.30;99.90
38456;DHT22;24237;50.106;20.014;2022-10-16T16:43:25;20.30;99.90
38456;DHT22;24237;50.106;20.014;2022-10-16T16:45:52;20.10;99.90
38456;DHT22;24237;50.106;20.014;2022-10-16T16:48:18;20.00;99.90
38456;DHT22;24237;50.106;20.014;2022-10-16T16:50:44;19.90;99.90
38456;DHT22;24237;50.106;20.014;2022-10-16T16:53:09;19.90;99.90
38456;DHT22;24237;50.106;20.014;2022-10-16T16:55:35;19.90;99.90
38456;DHT22;24237;50.106;20.014;2022-10-16T16:58:01;19.80;99.90
38456;DHT22;24237;50.106;20.014;2022-10-16T17:00:28;20.00;99.90
38456;DHT22;24237;50.106;20.014;2022-10-16T17:02:54;20.00;99.90
38456;DHT22;24237;50.106;20.014;2022-10-16T17:05:19;19.90;99.90
38456;DHT22;24237;50.106;20.014;2022-10-16T17:07:45;19.80;99.90
38456;DHT22;24237;50.106;20.014;2022-10-16T17:10:10;19.70;99.90
38456;DHT22;24237;50.106;20.014;2022-10-16T17:12:36;19.60;99.90
38456;DHT22;24237;50.106;20.014;2022-10-16T17:15:02;19.40;99.90
38456;DHT22;24237;50.106;20.014;2022-10-16T17:17:28;19.60;99.90
38456;DHT22;24237;50.106;20.014;2022-10-16T17:19:54;19.50;99.90
38456;DHT22;24237;50.106;20.014;2022-10-16T17:22:20;19.40;99.90
38456;DHT22;24237;50.106;20.014;2022-10-16T17:24:49;19.40;99.90
38456;DHT22;24237;50.106;20.014;2022-10-16T17:27:19;19.20;99.90
38456;DHT22;24237;50.106;20.014;2022-10-16T17:29:49;19.20;99.90
38456;DHT22;24237;50.106;20.014;2022-10-16T17:32:15;19.10;99.90
38456;DHT22;24237;50.106;20.014;2022-10-16T17:34:41;19.20;99.90
38456;DHT22;24237;50.106;20.014;2022-10-16T17:37:06;19.10;99.90
38456;DHT22;24237;50.106;20.014;2022-10-16T17:39:32;19.00;99.90
38456;DHT22;24237;50.106;20.014;2022-10-16T17:41:58;18.90;99.90
38456;DHT22;24237;50.106;20.014;2022-10-16T17:44:37;18.80;99.90
38456;DHT22;24237;50.106;20.014;2022-10-16T17:47:03;18.70;99.90
38456;DHT22;24237;50.106;20.014;2022-10-16T17:49:37;18.70;99.90
38456;DHT22;24237;50.106;20.014;2022-10-16T17:52:03;18.70;99.90
38456;DHT22;24237;50.106;20.014;2022-10-16T17:54:29;18.60;99.90
38456;DHT22;24237;50.106;20.014;2022-10-16T17:56:55;18.60;99.90
38456;DHT22;24237;50.106;20.014;2022-10-16T17:59:21;18.60;99.90
38456;DHT22;24237;50.106;20.014;2022-10-16T18:01:47;18.60;99.90
38456;DHT22;24237;50.106;20.014;2022-10-16T18:04:15;18.70;99.90
38456;DHT22;24237;50.106;20.014;2022-10-16T18:06:43;18.70;99.90